Time;durP1;ratioP1;P1;durP2;ratioP2;P2;SDS_P1;SDS_P2;PMS_P1;PMS_P2;Temp;Humidity;BMP_temperature;BMP_pressure;BME280_temperature;BME280_humidity;BME280_pressure;Samples;Min_cycle;Max_cycle;Signal;HPM_P1;HPM_P2
2023/03/04 00:01:45;;;;;;;25.92;14.38;;;;;;;5.06;44.75;99911.50;7709724;32;37171;-80
2023/03/04 00:06:02;;;;;;;32.65;14.20;;;;;;;4.94;45.01;99913.38;7709477;32;40111;-81
2023/03/04 00:10:18;;;;;;;25.62;13.52;;;;;;;4.92;45.06;99910.09;7709427;32;40797;-81
2023/03/04 00:14:34;;;;;;;31.58;13.93;;;;;;;4.78;45.16;99908.66;7709118;32;37872;-80
2023/03/04 00:18:51;;;;;;;31.98;14.65;;;;;;;4.94;44.96;99910.66;7709075;32;36763;-80
2023/03/04 00:23:07;;;;;;;31.02;14.82;;;;;;;4.69;45.59;99914.38;7709286;32;39839;-80
2023/03/04 00:27:23;;;;;;;27.30;14.15;;;;;;;4.38;46.38;99909.19;7708995;32;40596;-79
2023/03/04 00:31:39;;;;;;;30.50;14.40;;;;;;;4.37;46.31;99919.16;7708111;32;37952;-80
2023/03/04 00:35:55;;;;;;;26.73;14.35;;;;;;;4.27;46.41;99908.09;7708550;32;37204;-80
2023/03/04 00:40:12;;;;;;;29.48;13.95;;;;;;;4.17;46.41;99913.19;7708786;32;39943;-81
2023/03/04 00:44:28;;;;;;;27.65;14.57;;;;;;;4.09;46.57;99920.56;7708596;32;40886;-80
2023/03/04 00:48:44;;;;;;;29.55;14.80;;;;;;;4.15;46.52;99910.72;7708426;32;39074;-80
2023/03/04 00:53:01;;;;;;;30.17;15.23;;;;;;;4.24;46.36;99903.97;7708387;32;36850;-81
2023/03/04 00:57:17;;;;;;;30.23;14.57;;;;;;;4.08;46.72;99908.09;7710642;32;39951;-80
2023/03/04 01:01:33;;;;;;;30.02;14.73;;;;;;;3.89;47.29;99896.50;7711920;32;40917;-80
2023/03/04 01:05:49;;;;;;;30.65;15.20;;;;;;;3.93;47.16;99891.47;7712292;32;37836;-80
2023/03/04 01:10:09;;;;;;;29.30;15.07;;;;;;;3.89;47.08;99880.31;7712293;32;37140;-80
2023/03/04 01:14:25;;;;;;;28.45;13.60;;;;;;;3.81;47.60;99885.19;7712262;32;39211;-81
2023/03/04 01:18:41;;;;;;;28.42;13.90;;;;;;;3.83;47.33;99885.78;7711752;32;40558;-80
2023/03/04 01:22:57;;;;;;;25.20;13.68;;;;;;;3.67;47.82;99874.53;7712074;32;38633;-80
2023/03/04 01:27:14;;;;;;;24.90;12.85;;;;;;;3.80;47.44;99881.66;7712062;32;37151;-81
2023/03/04 01:31:30;;;;;;;30.85;14.98;;;;;;;3.68;47.58;99876.19;7711289;32;40016;-81
2023/03/04 01:35:46;;;;;;;25.02;13.60;;;;;;;3.44;47.97;99880.59;7711930;32;39723;-80
2023/03/04 01:40:04;;;;;;;31.87;14.30;;;;;;;3.38;47.94;99874.22;7711829;32;38657;-81
2023/03/04 01:44:20;;;;;;;29.08;15.27;;;;;;;3.25;48.36;99868.16;7710247;32;37100;-80
2023/03/04 01:48:37;;;;;;;30.02;13.73;;;;;;;3.26;48.43;99870.63;7710722;32;38895;-81
2023/03/04 01:52:54;;;;;;;30.95;13.98;;;;;;;3.42;48.18;99868.41;7711981;32;40965;-81
2023/03/04 01:57:20;;;;;;;28.45;13.90;;;;;;;3.19;48.56;99865.28;7710432;32;38043;-79
2023/03/04 02:01:36;;;;;;;27.42;13.10;;;;;;;2.96;48.93;99862.38;7709774;32;37943;-80
2023/03/04 02:05:54;;;;;;;31.27;14.43;;;;;;;3.19;48.22;99864.44;7710963;32;38917;-80
2023/03/04 02:10:11;;;;;;;30.12;13.88;;;;;;;2.90;48.87;99872.19;7711528;32;40080;-80
2023/03/04 02:14:28;;;;;;;28.80;14.02;;;;;;;2.73;49.39;99863.81;7711448;32;37917;-79
2023/03/04 02:18:44;;;;;;;25.65;13.25;;;;;;;2.86;48.90;99849.41;7711541;32;37973;-81
2023/03/04 02:23:10;;;;;;;27.58;13.70;;;;;;;2.82;48.78;99849.03;7711663;32;39413;-80
2023/03/04 02:27:26;;;;;;;28.50;13.02;;;;;;;2.71;49.01;99851.59;7684793;32;39945;-79
2023/03/04 02:31:44;;;;;;;24.30;12.55;;;;;;;2.90;48.40;99836.31;7699917;32;38149;-80
2023/03/04 02:36:00;;;;;;;26.15;13.30;;;;;;;2.86;48.37;99835.13;7710092;32;38350;-79
2023/03/04 02:40:23;;;;;;;26.10;14.27;;;;;;;2.70;48.57;99840.00;7711299;32;39798;-79
2023/03/04 02:44:45;;;;;;;25.55;13.23;;;;;;;2.69;48.77;99826.75;7710021;32;40795;-79
2023/03/04 02:49:01;;;;;;;23.92;12.77;;;;;;;2.66;48.57;99824.50;7710911;32;38612;-79
2023/03/04 02:53:19;;;;;;;24.10;12.68;;;;;;;2.75;48.10;99832.09;7709923;32;37208;-79
2023/03/04 02:57:35;;;;;;;26.17;12.37;;;;;;;2.57;48.34;99824.78;7711071;32;38209;-79
2023/03/04 03:01:52;;;;;;;26.42;12.93;;;;;;;2.54;48.08;99814.47;7710318;32;39886;-79
2023/03/04 03:06:08;;;;;;;27.83;12.82;;;;;;;2.43;48.39;99817.84;7710507;32;37545;-80
2023/03/04 03:10:25;;;;;;;30.23;13.60;;;;;;;2.66;47.70;99811.03;7710939;32;37080;-79
2023/03/04 03:14:42;;;;;;;27.90;13.62;;;;;;;2.49;48.40;99806.22;7709342;32;39949;-80
2023/03/04 03:18:58;;;;;;;24.87;13.23;;;;;;;2.38;48.68;99809.59;7709392;32;39997;-81
2023/03/04 03:23:16;;;;;;;22.98;12.45;;;;;;;2.57;48.37;99811.34;7710217;32;38769;-80
2023/03/04 03:27:32;;;;;;;27.50;13.55;;;;;;;2.81;47.72;99812.38;7709990;32;37228;-80
2023/03/04 03:31:49;;;;;;;32.25;13.90;;;;;;;2.28;48.99;99804.72;7710917;32;38091;-79
2023/03/04 03:36:05;;;;;;;28.08;13.88;;;;;;;2.31;48.87;99803.44;7710081;32;40573;-79
2023/03/04 03:40:22;;;;;;;27.35;13.52;;;;;;;2.22;49.13;99808.25;7710202;32;37962;-80
2023/03/04 03:44:38;;;;;;;26.73;14.32;;;;;;;2.14;49.76;99809.34;7710332;32;37367;-80
2023/03/04 03:48:54;;;;;;;26.52;13.32;;;;;;;2.27;49.18;99807.62;7710185;32;39237;-80
2023/03/04 03:53:10;;;;;;;29.83;12.60;;;;;;;2.09;49.61;99813.69;7709924;32;40825;-80
2023/03/04 03:57:27;;;;;;;25.48;12.20;;;;;;;2.15;49.41;99810.16;7708125;32;37465;-80
2023/03/04 04:01:44;;;;;;;25.90;13.27;;;;;;;2.10;49.24;99808.13;7709432;32;37902;-81
2023/03/04 04:06:00;;;;;;;26.50;12.98;;;;;;;2.18;49.07;99815.94;7708528;32;40116;-80
2023/03/04 04:10:16;;;;;;;28.05;12.85;;;;;;;2.10;49.18;99813.50;7709260;32;39896;-80
2023/03/04 04:14:33;;;;;;;25.95;12.50;;;;;;;2.09;49.31;99811.00;7709485;32;37550;-79
2023/03/04 04:18:49;;;;;;;26.62;12.98;;;;;;;2.09;49.15;99805.63;7709179;32;37181;-79
2023/03/04 04:23:06;;;;;;;22.62;12.00;;;;;;;1.60;50.16;99797.19;7709265;32;39260;-81
2023/03/04 04:27:22;;;;;;;27.10;12.60;;;;;;;1.91;49.38;99798.28;7708769;32;40763;-80
2023/03/04 04:31:38;;;;;;;26.17;12.37;;;;;;;1.31;50.99;99799.34;7711380;32;37955;-80
2023/03/04 04:35:54;;;;;;;27.58;11.48;;;;;;;1.77;49.66;99798.34;7712086;32;37864;-81
2023/03/04 04:40:12;;;;;;;26.33;11.68;;;;;;;1.98;49.10;99799.91;7712668;32;39085;-81
2023/03/04 04:44:28;;;;;;;22.80;11.12;;;;;;;2.00;49.07;99803.22;7712394;32;40827;-81
2023/03/04 04:48:44;;;;;;;28.00;12.55;;;;;;;1.75;49.62;99805.81;7711952;32;37986;-80
2023/03/04 04:53:00;;;;;;;24.65;12.32;;;;;;;1.48;50.45;99805.09;7711602;32;36854;-80
2023/03/04 04:57:17;;;;;;;23.55;11.88;;;;;;;1.37;50.73;99805.75;7731254;32;39881;-80
2023/03/04 05:01:33;;;;;;;23.83;11.32;;;;;;;1.34;50.63;99808.84;7728918;32;39717;-80
2023/03/04 05:05:50;;;;;;;22.52;11.05;;;;;;;1.66;49.74;99807.09;7712152;32;37924;-81
2023/03/04 05:10:07;;;;;;;26.62;13.50;;;;;;;1.59;50.13;99809.00;7712166;32;37880;-81
2023/03/04 05:14:23;;;;;;;27.80;12.77;;;;;;;1.33;51.11;99808.03;7711989;32;40091;-79
2023/03/04 05:18:39;;;;;;;31.05;12.13;;;;;;;1.51;50.91;99799.28;7711575;32;39788;-81
2023/03/04 05:22:56;;;;;;;27.13;11.98;;;;;;;1.78;50.31;99799.19;7712086;32;37808;-81
2023/03/04 05:27:12;;;;;;;28.00;13.50;;;;;;;1.76;50.21;99812.84;7711939;32;38000;-80
2023/03/04 05:31:28;;;;;;;25.20;12.88;;;;;;;1.99;49.46;99806.12;7711757;32;40079;-80
2023/03/04 05:35:47;;;;;;;26.50;12.13;;;;;;;1.93;49.64;99801.59;7711619;32;40405;-80
2023/03/04 05:40:04;;;;;;;26.48;12.50;;;;;;;1.74;50.02;99806.03;7711719;32;37954;-81
2023/03/04 05:44:20;;;;;;;27.95;12.25;;;;;;;1.69;50.19;99804.81;7711311;32;37310;-80
2023/03/04 05:48:36;;;;;;;27.83;12.55;;;;;;;1.66;50.45;99807.09;7709976;32;40035;-81
2023/03/04 05:52:53;;;;;;;27.30;12.55;;;;;;;1.62;50.75;99804.03;7711836;32;41131;-79
2023/03/04 05:57:09;;;;;;;29.73;13.77;;;;;;;1.50;51.41;99803.84;7709373;32;38499;-80
2023/03/04 06:01:25;;;;;;;35.63;13.60;;;;;;;1.47;51.94;99809.63;7710896;32;35467;-80
2023/03/04 06:05:42;;;;;;;27.90;13.45;;;;;;;1.41;52.41;99813.16;7711781;32;39227;-79
2023/03/04 06:09:58;;;;;;;36.88;13.70;;;;;;;1.53;52.44;99809.84;7709494;32;40775;-80
2023/03/04 06:14:14;;;;;;;29.17;14.77;;;;;;;1.52;53.00;99818.91;7711560;32;37864;-80
2023/03/04 06:18:31;;;;;;;33.72;14.25;;;;;;;1.69;52.62;99812.88;7710037;32;37625;-80
2023/03/04 06:22:47;;;;;;;31.20;14.93;;;;;;;1.61;53.22;99821.16;7711128;32;39870;-80
2023/03/04 06:27:03;;;;;;;32.80;16.42;;;;;;;1.88;52.81;99823.75;7711195;32;39707;-80
2023/03/04 06:31:20;;;;;;;33.20;15.80;;;;;;;1.36;55.23;99831.78;7711277;32;38730;-80
2023/03/04 06:35:36;;;;;;;34.70;16.20;;;;;;;1.96;53.76;99828.06;7711000;32;37198;-80
2023/03/04 06:39:53;;;;;;;40.10;17.90;;;;;;;2.26;53.24;99839.06;7711303;32;40330;-81
2023/03/04 06:44:09;;;;;;;38.67;19.05;;;;;;;2.19;53.77;99833.72;7710366;32;40023;-79
2023/03/04 06:48:26;;;;;;;40.12;18.35;;;;;;;2.54;53.20;99832.47;7709979;32;38688;-81
2023/03/04 06:52:43;;;;;;;35.90;18.00;;;;;;;2.55;53.57;99842.19;7711040;32;37097;-79
2023/03/04 06:56:59;;;;;;;44.70;19.42;;;;;;;2.81;53.29;99836.62;7710972;32;39052;-81
2023/03/04 07:01:24;;;;;;;38.45;18.23;;;;;;;2.91;53.17;99830.72;7710425;32;40603;-78
2023/03/04 07:05:41;;;;;;;40.12;19.30;;;;;;;3.28;57.72;99820.03;7711044;32;37612;-80
2023/03/04 07:09:57;;;;;;;47.95;19.87;;;;;;;3.88;53.50;99819.34;7708194;32;37974;-80
2023/03/04 07:14:13;;;;;;;47.38;20.08;;;;;;;3.58;52.09;99830.06;7710292;32;40541;-80
2023/03/04 07:18:30;;;;;;;33.55;15.63;;;;;;;3.91;51.31;99821.56;7703443;32;222360;-78
2023/03/04 07:22:46;;;;;;;33.70;16.37;;;;;;;3.92;58.69;99819.72;7710775;32;37921;-81
2023/03/04 07:27:02;;;;;;;38.80;18.85;;;;;;;4.20;55.63;99815.59;7710974;32;37875;-79
2023/03/04 07:31:22;;;;;;;39.95;18.73;;;;;;;3.83;51.33;99815.66;7710787;32;39170;-80
2023/03/04 07:35:39;;;;;;;39.63;17.55;;;;;;;4.01;51.17;99810.25;7710583;32;39916;-80
2023/03/04 07:39:55;;;;;;;43.87;18.77;;;;;;;4.32;50.72;99805.66;7710511;32;37615;-80
2023/03/04 07:44:12;;;;;;;39.60;17.58;;;;;;;4.66;49.86;99805.97;7710483;32;37863;-81
2023/03/04 07:48:28;;;;;;;39.67;19.17;;;;;;;4.84;49.32;99799.66;7709181;32;39439;-80
2023/03/04 07:52:46;;;;;;;40.95;18.58;;;;;;;4.76;48.98;99798.13;7710192;32;40773;-80
2023/03/04 07:57:03;;;;;;;37.13;18.00;;;;;;;5.07;48.65;99801.53;7708873;32;37707;-80
2023/03/04 08:01:27;;;;;;;40.05;17.95;;;;;;;4.92;48.97;99801.19;7710110;32;36868;-80
2023/03/04 08:05:44;;;;;;;40.70;18.10;;;;;;;4.99;48.83;99793.78;7711579;32;39495;-81
2023/03/04 08:10:00;;;;;;;38.25;17.85;;;;;;;4.89;49.20;99788.97;7713269;32;40072;-81
2023/03/04 08:14:16;;;;;;;31.87;16.05;;;;;;;4.70;50.10;99789.06;7713050;32;38640;-80
2023/03/04 08:18:33;;;;;;;36.28;16.83;;;;;;;4.88;49.68;99790.00;7712843;32;38332;-80
2023/03/04 08:22:50;;;;;;;26.65;13.40;;;;;;;4.97;49.30;99794.03;7712915;32;39379;-81
2023/03/04 08:27:06;;;;;;;33.22;15.80;;;;;;;5.30;48.04;99791.78;7712762;32;39974;-80
2023/03/04 08:31:23;;;;;;;29.90;14.87;;;;;;;5.16;48.45;99781.22;7712753;32;37891;-80
2023/03/04 08:35:39;;;;;;;32.40;15.25;;;;;;;5.22;48.61;99784.84;7712828;32;37251;-81
2023/03/04 08:39:56;;;;;;;30.65;14.05;;;;;;;5.15;48.93;99779.56;7712815;32;39408;-81
2023/03/04 08:44:12;;;;;;;29.85;14.25;;;;;;;5.72;47.09;99780.75;7712782;32;40018;-79
2023/03/04 08:48:29;;;;;;;26.58;13.13;;;;;;;5.77;47.71;99775.44;7712741;32;38619;-81
2023/03/04 08:52:45;;;;;;;27.13;12.02;;;;;;;6.07;46.86;99767.13;7712669;32;37747;-82
2023/03/04 08:57:03;;;;;;;28.10;12.65;;;;;;;5.68;46.90;99766.88;7712570;32;39401;-83
2023/03/04 09:01:19;;;;;;;26.05;12.68;;;;;;;6.05;47.01;99771.13;7712455;32;40720;-81
2023/03/04 09:05:35;;;;;;;21.50;10.13;;;;;;;6.44;45.18;99757.75;7712304;32;38619;-80
2023/03/04 09:09:51;;;;;;;20.95;10.45;;;;;;;7.14;42.41;99749.06;7712344;32;38240;-80
2023/03/04 09:14:08;;;;;;;19.65;10.57;;;;;;;7.74;41.13;99748.44;7712457;32;39275;-81
2023/03/04 09:18:25;;;;;;;23.30;10.25;;;;;;;8.16;40.61;99748.63;7711211;32;40110;-80
2023/03/04 09:22:41;;;;;;;22.90;10.45;;;;;;;8.28;39.98;99727.56;7710362;32;37646;-81
2023/03/04 09:26:58;;;;;;;22.55;11.35;;;;;;;8.51;38.38;99728.31;7711249;32;37312;-81
2023/03/04 09:31:14;;;;;;;26.77;12.23;;;;;;;8.76;39.09;99716.81;7710977;32;40087;-81
2023/03/04 09:35:31;;;;;;;26.73;10.82;;;;;;;8.56;38.63;99728.34;7711136;32;39778;-81
2023/03/04 09:39:49;;;;;;;25.45;11.68;;;;;;;9.05;37.89;99715.62;7710891;32;37839;-81
2023/03/04 09:44:22;;;;;;;24.52;11.27;;;;;;;9.28;37.17;99717.94;7710593;32;37007;-81
2023/03/04 09:48:53;;;;;;;25.67;11.65;;;;;;;9.23;38.25;99709.75;7707725;32;40001;-81
2023/03/04 09:53:44;;;;;;;24.55;11.75;;;;;;;9.25;38.42;99707.56;7708967;32;40738;-80
2023/03/04 09:58:24;;;;;;;24.55;12.65;;;;;;;9.33;38.67;99698.91;7699580;32;37622;-81
2023/03/04 10:03:08;;;;;;;25.45;12.77;;;;;;;9.39;38.01;99691.59;7710744;32;37974;-81
2023/03/04 10:07:35;;;;;;;31.08;13.30;;;;;;;9.67;37.39;99681.31;7710788;32;39133;-81
2023/03/04 10:12:00;;;;;;;38.85;13.50;;;;;;;9.68;37.55;99672.91;7709782;32;40616;-81
2023/03/04 10:16:20;;;;;;;25.70;12.52;;;;;;;10.55;35.96;99663.97;7710730;32;37852;-81
2023/03/04 10:21:17;;;;;;;24.98;12.45;;;;;;;10.38;36.12;99647.91;7710515;32;37767;-83
2023/03/04 10:25:34;;;;;;;28.17;13.55;;;;;;;10.13;36.20;99652.25;7694092;32;39498;-81
2023/03/04 10:29:50;;;;;;;20.92;11.60;;;;;;;9.92;36.65;99650.63;7709944;32;40059;-82
2023/03/04 10:34:09;;;;;;;28.38;13.73;;;;;;;10.38;36.01;99650.63;7710084;32;37573;-83
2023/03/04 10:38:28;;;;;;;26.52;12.50;;;;;;;9.77;37.12;99663.09;7710147;32;36916;-81
2023/03/04 10:42:47;;;;;;;30.37;13.02;;;;;;;10.30;35.55;99629.38;7710465;32;40044;-81
2023/03/04 10:47:08;;;;;;;25.05;12.20;;;;;;;10.55;34.61;99633.19;7709235;32;39772;-81
2023/03/04 10:51:29;;;;;;;25.12;11.88;;;;;;;11.62;33.82;99612.81;7709098;32;37806;-82
2023/03/04 10:55:45;;;;;;;23.90;12.52;;;;;;;11.95;33.72;99619.47;7710304;32;37158;-81
2023/03/04 11:00:16;;;;;;;25.33;11.88;;;;;;;12.39;32.62;99612.25;7710118;32;40209;-82
2023/03/04 11:04:34;;;;;;;23.27;12.10;;;;;;;12.89;30.78;99610.06;7708973;32;40431;-82
2023/03/04 11:08:55;;;;;;;26.83;13.48;;;;;;;12.68;31.43;99614.97;7709148;32;37165;-83
2023/03/04 11:13:16;;;;;;;30.33;12.50;;;;;;;12.02;31.03;99606.28;7708755;32;38986;-81
2023/03/04 11:17:44;;;;;;;26.85;11.32;;;;;;;12.57;31.91;99592.38;7708459;32;39570;-83
2023/03/04 11:22:01;;;;;;;24.67;12.68;;;;;;;12.27;30.85;99598.16;7709426;32;39937;-82
2023/03/04 11:26:32;;;;;;;24.25;12.50;;;;;;;11.51;31.74;99592.97;7709253;32;39094;-81
2023/03/04 11:31:01;;;;;;;27.15;13.32;;;;;;;11.70;31.53;99584.91;7708036;32;38010;-83
2023/03/04 11:35:27;;;;;;;25.65;12.98;;;;;;;11.74;31.46;99575.03;7709902;32;38270;-82
2023/03/04 11:40:00;;;;;;;25.55;12.90;;;;;;;12.57;31.05;99575.13;7708026;32;39731;-81
2023/03/04 11:44:16;;;;;;;26.85;12.70;;;;;;;13.04;30.72;99565.28;7706576;32;39294;-81
2023/03/04 11:49:05;;;;;;;25.58;10.90;;;;;;;12.64;30.47;99556.50;7709704;32;37186;-82
2023/03/04 11:53:35;;;;;;;20.50;10.40;;;;;;;13.79;29.06;99549.97;7709494;32;39582;-82
2023/03/04 11:58:34;;;;;;;20.02;10.50;;;;;;;14.80;25.79;99551.19;7709098;32;40762;-81
2023/03/04 12:03:02;;;;;;;18.73;10.10;;;;;;;14.37;25.62;99534.19;7709715;32;37971;-82
2023/03/04 12:07:46;;;;;;;20.23;10.48;;;;;;;14.44;26.25;99520.87;7709814;32;37501;-82
2023/03/04 12:12:41;;;;;;;22.48;10.80;;;;;;;15.13;25.29;99511.81;7709707;32;39288;-82
2023/03/04 12:17:12;;;;;;;18.87;10.35;;;;;;;14.22;25.79;99513.34;7698448;32;39920;-81
2023/03/04 12:21:41;;;;;;;19.60;9.85;;;;;;;14.33;25.98;99508.47;7707775;32;37991;-82
2023/03/04 12:26:24;;;;;;;20.83;11.30;;;;;;;14.89;23.96;99507.38;7709011;32;37860;-82
2023/03/04 12:30:43;;;;;;;22.33;11.85;;;;;;;15.54;24.32;99495.19;7707899;32;40082;-82
2023/03/04 12:35:13;;;;;;;19.30;10.10;;;;;;;15.67;24.61;99482.50;7708509;32;39681;-83
2023/03/04 12:39:41;;;;;;;18.05;9.05;;;;;;;15.91;23.72;99478.62;7708873;32;37790;-82
2023/03/04 12:44:02;;;;;;;17.75;8.65;;;;;;;15.61;23.43;99475.50;7707496;32;37815;-80
2023/03/04 12:48:30;;;;;;;20.52;9.27;;;;;;;16.68;22.30;99468.25;7707474;32;38279;-84
2023/03/04 12:53:20;;;;;;;20.37;8.80;;;;;;;16.75;22.32;99457.59;7710866;32;40065;-83
2023/03/04 12:57:36;;;;;;;15.32;7.87;;;;;;;15.02;21.67;99459.03;7696887;32;38678;-84
2023/03/04 13:02:15;;;;;;;18.08;7.07;;;;;;;14.95;22.33;99453.16;7711056;32;37070;-83
2023/03/04 13:07:06;;;;;;;18.98;7.28;;;;;;;15.76;21.63;99438.59;7722918;32;39320;-82
2023/03/04 13:11:29;;;;;;;15.93;7.95;;;;;;;15.95;21.21;99439.22;7735065;32;39857;-85
2023/03/04 13:16:00;;;;;;;13.50;6.75;;;;;;;14.78;20.62;99432.69;7738588;32;37863;-80
2023/03/04 13:20:51;;;;;;;11.25;6.03;;;;;;;15.88;21.14;99419.59;7736915;32;37254;-82
2023/03/04 13:25:35;;;;;;;14.60;6.85;;;;;;;16.09;20.09;99408.84;7725989;32;39340;-81
2023/03/04 13:29:51;;;;;;;18.05;7.82;;;;;;;16.16;19.93;99422.16;7738939;32;40854;-82
2023/03/04 13:34:30;;;;;;;17.23;8.18;;;;;;;16.17;20.31;99432.00;7738689;32;38855;-82
2023/03/04 13:39:14;;;;;;;15.30;7.55;;;;;;;15.63;22.01;99417.50;7737558;32;38116;-82
2023/03/04 13:43:46;;;;;;;16.58;7.72;;;;;;;16.48;20.27;99420.94;7737818;32;39073;-82
2023/03/04 13:48:07;;;;;;;17.10;8.48;;;;;;;16.01;20.93;99420.63;7738738;32;40556;-82
2023/03/04 13:52:43;;;;;;;15.75;8.00;;;;;;;16.29;21.69;99412.16;7738664;32;37636;-81
2023/03/04 13:57:35;;;;;;;16.80;8.35;;;;;;;16.77;21.21;99415.97;7738494;32;37053;-81
2023/03/04 14:01:56;;;;;;;18.27;8.18;;;;;;;16.77;21.82;99422.28;7696931;32;40015;-83
2023/03/04 14:06:18;;;;;;;16.12;8.32;;;;;;;16.71;21.39;99418.06;7709596;32;39929;-84
2023/03/04 14:10:35;;;;;;;16.15;8.48;;;;;;;16.49;21.12;99427.25;7711393;32;37882;-85
2023/03/04 14:14:55;;;;;;;17.27;8.95;;;;;;;15.17;22.32;99428.50;7710183;32;37062;-83
2023/03/04 14:19:24;;;;;;;16.52;8.68;;;;;;;14.91;22.54;99422.78;7710772;32;39195;-83
2023/03/04 14:23:40;;;;;;;16.12;8.60;;;;;;;15.16;23.06;99410.41;7697212;32;40038;-84
2023/03/04 14:28:17;;;;;;;19.92;10.27;;;;;;;15.61;22.52;99415.06;7710022;32;38184;-82
2023/03/04 14:32:33;;;;;;;18.02;10.30;;;;;;;15.72;22.45;99410.91;7711535;32;36410;-83
2023/03/04 14:36:50;;;;;;;21.12;10.38;;;;;;;15.47;23.22;99417.06;7708788;32;40086;-81
2023/03/04 14:41:38;;;;;;;23.52;12.10;;;;;;;15.91;22.79;99418.16;7709128;32;40009;-82
2023/03/04 14:45:57;;;;;;;26.17;12.30;;;;;;;15.98;22.63;99417.69;7696163;32;38145;-84
2023/03/04 14:50:17;;;;;;;28.38;10.32;;;;;;;16.27;22.32;99423.47;7708509;32;37280;-87
2023/03/04 14:54:36;;;;;;;23.12;11.30;;;;;;;15.50;22.35;99430.19;7706778;32;40072;-79
2023/03/04 14:58:56;;;;;;;21.27;11.18;;;;;;;14.45;23.07;99423.75;7710663;32;39733;-85
2023/03/04 15:03:24;;;;;;;23.67;10.77;;;;;;;14.49;23.19;99433.03;7711027;32;38083;-85
2023/03/04 15:07:40;;;;;;;22.17;11.30;;;;;;;15.24;22.37;99427.25;7683914;32;37498;-86
2023/03/04 15:12:02;;;;;;;22.40;11.35;;;;;;;15.02;22.45;99426.94;7706388;32;40729;-83
2023/03/04 15:16:22;;;;;;;26.00;11.52;;;;;;;15.18;22.21;99412.84;7710173;32;39927;-86
2023/03/04 15:20:38;;;;;;;21.30;11.10;;;;;;;14.69;22.08;99420.00;7709370;32;38685;-83
2023/03/04 15:24:55;;;;;;;21.65;11.63;;;;;;;14.42;23.14;99419.72;7708456;32;37164;-84
2023/03/04 15:29:16;;;;;;;21.27;10.73;;;;;;;15.24;21.86;99406.09;7710036;32;39984;-89
2023/03/04 15:33:33;;;;;;;24.35;11.07;;;;;;;16.91;20.01;99410.34;7708626;32;40725;-90
2023/03/04 15:37:53;;;;;;;21.27;11.32;;;;;;;16.19;20.52;99412.44;7709291;32;38537;-83
2023/03/04 15:42:11;;;;;;;21.08;11.12;;;;;;;14.32;23.00;99416.38;7707659;32;37134;-85
2023/03/04 15:46:27;;;;;;;21.25;10.65;;;;;;;13.43;24.29;99410.88;7697033;32;39106;-84
2023/03/04 15:51:02;;;;;;;22.75;11.63;;;;;;;13.42;23.96;99413.91;7710442;32;40801;-84
2023/03/04 15:55:20;;;;;;;25.92;12.25;;;;;;;12.96;24.94;99407.25;7710218;32;37938;-83
2023/03/04 15:59:36;;;;;;;23.12;11.88;;;;;;;11.47;27.12;99411.75;7709913;32;37177;-84
2023/03/04 16:03:53;;;;;;;21.80;12.75;;;;;;;11.02;28.07;99416.44;7710113;32;39972;-83
2023/03/04 16:08:12;;;;;;;22.62;12.52;;;;;;;10.36;29.31;99414.94;7710409;32;39774;-83
2023/03/04 16:12:28;;;;;;;26.33;12.25;;;;;;;10.72;28.65;99407.37;7709353;32;38102;-83
2023/03/04 16:16:45;;;;;;;24.85;12.35;;;;;;;10.97;28.54;99413.75;7709643;32;37168;-84
2023/03/04 16:21:02;;;;;;;24.25;12.93;;;;;;;10.52;29.57;99419.25;7709330;32;39274;-83
2023/03/04 16:25:21;;;;;;;26.50;13.10;;;;;;;9.73;31.00;99427.91;7710045;32;40877;-83
2023/03/04 16:29:38;;;;;;;26.80;13.45;;;;;;;9.22;31.82;99436.09;7711635;32;37953;-83
2023/03/04 16:33:54;;;;;;;27.25;14.35;;;;;;;9.18;32.37;99427.66;7711251;32;37527;-85
2023/03/04 16:38:24;;;;;;;25.80;13.15;;;;;;;8.86;33.18;99433.34;7712892;32;39336;-82
2023/03/04 16:42:41;;;;;;;28.62;14.68;;;;;;;8.94;33.25;99434.72;7712854;32;39706;-83
2023/03/04 16:46:57;;;;;;;30.08;14.02;;;;;;;8.49;34.32;99428.91;7711601;32;37883;-83
2023/03/04 16:51:24;;;;;;;26.98;14.40;;;;;;;8.43;34.32;99436.22;7703885;32;38068;-83
2023/03/04 16:55:40;;;;;;;25.25;13.40;;;;;;;8.02;35.32;99440.59;7689699;32;39894;-82
2023/03/04 16:59:57;;;;;;;27.17;13.15;;;;;;;7.74;36.16;99439.09;7694953;32;40732;-82
2023/03/04 17:04:13;;;;;;;26.10;13.25;;;;;;;8.17;35.51;99443.41;7699031;32;37829;-81
2023/03/04 17:08:29;;;;;;;39.15;18.02;;;;;;;7.81;36.47;99445.94;7711204;32;38020;-81
2023/03/04 17:12:46;;;;;;;38.67;17.30;;;;;;;7.38;37.78;99450.50;7712339;32;39274;-81
2023/03/04 17:17:03;;;;;;;31.87;16.02;;;;;;;7.68;37.51;99462.66;7712157;32;40811;-82
2023/03/04 17:21:25;;;;;;;32.05;15.30;;;;;;;6.90;39.73;99468.50;7712129;32;37882;-81
2023/03/04 17:25:41;;;;;;;33.85;16.80;;;;;;;7.39;38.79;99471.12;7710900;32;37262;-80
2023/03/04 17:29:57;;;;;;;30.75;15.52;;;;;;;7.38;39.08;99471.38;7711957;32;39271;-81
2023/03/04 17:34:14;;;;;;;29.12;15.05;;;;;;;7.20;39.43;99484.25;7702670;32;39895;-82
2023/03/04 17:38:30;;;;;;;27.17;13.18;;;;;;;7.14;39.22;99486.09;7698800;32;38072;-82
2023/03/04 17:42:46;;;;;;;24.80;13.25;;;;;;;6.36;40.65;99493.59;7712128;32;37384;-81
2023/03/04 17:47:03;;;;;;;27.65;12.73;;;;;;;6.60;40.63;99494.16;7708558;32;39305;-81
2023/03/04 17:51:19;;;;;;;25.33;12.55;;;;;;;5.90;41.80;99496.47;7711932;32;39695;-80
2023/03/04 17:55:35;;;;;;;23.35;12.43;;;;;;;6.30;41.12;99484.59;7710996;32;37628;-81
2023/03/04 17:59:51;;;;;;;23.02;11.82;;;;;;;5.27;43.61;99501.94;7711680;32;37248;-80
2023/03/04 18:04:07;;;;;;;21.90;11.48;;;;;;;5.33;44.17;99504.75;7710491;32;40067;-81
2023/03/04 18:08:27;;;;;;;23.02;12.00;;;;;;;5.49;43.69;99509.34;7710629;32;40722;-80
2023/03/04 18:12:43;;;;;;;22.15;11.52;;;;;;;5.15;44.66;99509.31;7711591;32;38578;-80
2023/03/04 18:16:59;;;;;;;24.42;11.15;;;;;;;4.67;45.92;99508.72;7711290;32;37159;-80
2023/03/04 18:21:16;;;;;;;21.27;9.65;;;;;;;4.33;47.39;99511.25;7711270;32;39180;-81
2023/03/04 18:25:32;;;;;;;22.85;9.23;;;;;;;4.53;46.81;99522.72;7711609;32;39922;-81
2023/03/04 18:29:49;;;;;;;14.70;8.48;;;;;;;4.98;46.06;99511.16;7711052;32;38022;-80
2023/03/04 18:34:05;;;;;;;11.27;6.80;;;;;;;4.44;47.80;99519.56;7711640;32;37739;-80
2023/03/04 18:38:21;;;;;;;20.20;9.55;;;;;;;4.08;49.56;99521.47;7710899;32;39280;-79
2023/03/04 18:42:39;;;;;;;13.27;7.87;;;;;;;3.84;50.24;99518.78;7710777;32;40862;-82
2023/03/04 18:46:59;;;;;;;13.77;7.87;;;;;;;3.93;50.70;99516.53;7707361;32;37595;-81
2023/03/04 18:51:16;;;;;;;15.10;7.90;;;;;;;4.19;50.28;99517.12;7708043;32;36004;-79
2023/03/04 18:55:32;;;;;;;18.92;8.45;;;;;;;4.07;50.25;99509.88;7711252;32;40185;-81
2023/03/04 18:59:58;;;;;;;16.95;8.02;;;;;;;3.80;51.63;99524.88;7710359;32;40796;-80
2023/03/04 19:04:16;;;;;;;14.65;8.35;;;;;;;3.79;51.37;99515.97;7709394;32;37839;-80
2023/03/04 19:08:33;;;;;;;13.48;7.12;;;;;;;3.70;52.03;99525.47;7711226;32;36247;-81
2023/03/04 19:12:50;;;;;;;13.48;7.97;;;;;;;4.29;50.73;99528.13;7711040;32;39182;-81
2023/03/04 19:17:07;;;;;;;14.70;7.97;;;;;;;3.95;51.94;99517.97;7710886;32;39952;-81
2023/03/04 19:21:23;;;;;;;12.60;7.53;;;;;;;3.67;52.81;99518.66;7683949;32;38539;-80
2023/03/04 19:25:40;;;;;;;13.27;7.43;;;;;;;3.86;52.26;99518.53;7684180;32;38862;-81
2023/03/04 19:29:57;;;;;;;13.93;7.55;;;;;;;4.01;51.66;99516.19;7684189;32;40200;-79
2023/03/04 19:34:13;;;;;;;15.35;7.32;;;;;;;3.51;52.76;99516.66;7683440;32;39958;-80
2023/03/04 19:38:30;;;;;;;13.60;8.20;;;;;;;4.06;51.44;99519.00;7683784;32;38372;-80
2023/03/04 19:42:47;;;;;;;12.23;7.97;;;;;;;3.79;51.65;99520.53;7683816;32;37941;-80
2023/03/04 19:47:04;;;;;;;14.27;8.90;;;;;;;4.25;50.51;99522.41;7683799;32;40101;-81
2023/03/04 19:51:25;;;;;;;13.95;7.80;;;;;;;3.35;52.90;99524.34;7706551;32;39965;-80
2023/03/04 19:55:41;;;;;;;16.85;8.55;;;;;;;4.41;50.07;99531.62;7710153;32;37654;-81
2023/03/04 19:59:57;;;;;;;14.80;7.75;;;;;;;4.18;50.71;99527.09;7710235;32;36945;-81
2023/03/04 20:04:19;;;;;;;17.92;9.80;;;;;;;4.50;49.58;99538.31;7713276;32;40024;-80
2023/03/04 20:08:37;;;;;;;15.23;8.27;;;;;;;4.71;49.05;99541.44;7713168;32;40962;-81